createdAt,value
2019-02-09T00:01:37.666Z,7.60
2019-02-09T00:04:07.090Z,7.60
2019-02-09T00:06:36.577Z,7.60
2019-02-09T00:09:08.883Z,7.60
2019-02-09T00:11:38.269Z,7.40
2019-02-09T00:14:07.644Z,7.40
2019-02-09T00:16:37.081Z,7.40
2019-02-09T00:19:06.751Z,7.50
2019-02-09T00:21:36.272Z,7.50
2019-02-09T00:24:06.265Z,7.50
2019-02-09T00:26:35.763Z,7.50
2019-02-09T00:29:05.236Z,7.40
2019-02-09T00:31:34.760Z,7.20
2019-02-09T00:34:04.178Z,7.10
2019-02-09T00:36:33.605Z,7.10
2019-02-09T00:39:03.201Z,7.20
2019-02-09T00:41:32.715Z,7.30
2019-02-09T00:44:02.184Z,7.20
2019-02-09T00:46:31.762Z,7.20
2019-02-09T00:49:01.327Z,7.10
2019-02-09T00:51:30.775Z,7.20
2019-02-09T00:54:00.332Z,7.10
2019-02-09T00:56:29.863Z,7.10
2019-02-09T00:58:59.474Z,7.00
2019-02-09T01:01:28.907Z,7.10
2019-02-09T01:03:58.494Z,7.20
2019-02-09T01:06:28.023Z,7.30
2019-02-09T01:08:57.656Z,7.30
2019-02-09T01:11:27.188Z,7.30
2019-02-09T01:13:56.843Z,7.30
2019-02-09T01:16:26.384Z,7.40
2019-02-09T01:18:55.882Z,7.40
2019-02-09T01:21:25.484Z,7.30
2019-02-09T01:23:54.999Z,7.30
2019-02-09T01:26:24.581Z,7.30
2019-02-09T01:28:54.194Z,7.00
2019-02-09T01:31:23.819Z,7.10
2019-02-09T01:33:53.434Z,7.10
2019-02-09T01:36:22.862Z,7.30
2019-02-09T01:38:52.323Z,7.30
2019-02-09T01:41:21.886Z,7.10
2019-02-09T01:43:51.499Z,7.20
2019-02-09T01:46:21.083Z,7.10
2019-02-09T01:48:50.677Z,7.10
2019-02-09T01:51:20.289Z,7.00
2019-02-09T01:53:49.917Z,7.00
2019-02-09T01:56:19.527Z,7.00
2019-02-09T01:58:49.055Z,6.80
2019-02-09T02:01:18.641Z,6.50
2019-02-09T02:03:48.475Z,6.30
2019-02-09T02:06:18.124Z,6.20
2019-02-09T02:08:47.590Z,6.40
2019-02-09T02:11:17.088Z,6.60
2019-02-09T02:13:46.691Z,6.80
2019-02-09T02:16:16.353Z,6.80
2019-02-09T02:18:45.861Z,6.90
2019-02-09T02:21:15.539Z,7.00
2019-02-09T02:23:45.121Z,7.10
2019-02-09T02:26:14.615Z,7.00
2019-02-09T02:28:44.150Z,7.10
2019-02-09T02:31:13.741Z,7.00
2019-02-09T02:33:43.343Z,7.10
2019-02-09T02:36:12.860Z,7.10
2019-02-09T02:38:42.466Z,7.10
2019-02-09T02:41:11.973Z,7.20
2019-02-09T02:43:41.623Z,7.20
2019-02-09T02:46:11.632Z,7.20
2019-02-09T02:48:41.177Z,7.20
2019-02-09T02:51:10.730Z,7.30
2019-02-09T02:53:40.263Z,7.10
2019-02-09T02:56:10.035Z,7.10
2019-02-09T02:58:39.544Z,7.00
2019-02-09T03:01:09.066Z,7.00
2019-02-09T03:03:38.608Z,7.00
2019-02-09T03:06:08.163Z,7.10
2019-02-09T03:08:37.716Z,7.00
2019-02-09T03:11:07.270Z,6.90
2019-02-09T03:13:36.700Z,6.80
2019-02-09T03:16:06.282Z,6.70
2019-02-09T03:18:35.812Z,6.70
2019-02-09T03:21:05.365Z,6.70
2019-02-09T03:23:34.938Z,6.50
2019-02-09T03:26:04.658Z,6.40
2019-02-09T03:28:34.325Z,6.40
2019-02-09T03:31:03.999Z,6.30
2019-02-09T03:33:33.517Z,6.30
2019-02-09T03:36:02.963Z,6.40
2019-02-09T03:38:32.519Z,6.50
2019-02-09T03:41:02.077Z,6.50
2019-02-09T03:43:31.626Z,6.50
2019-02-09T03:46:01.175Z,6.50
2019-02-09T03:48:30.724Z,6.40
2019-02-09T03:51:00.352Z,6.20
2019-02-09T03:53:29.868Z,6.10
2019-02-09T03:55:59.969Z,6.20
2019-02-09T03:58:29.553Z,6.30
2019-02-09T04:00:59.170Z,6.20
2019-02-09T04:03:28.743Z,6.10
2019-02-09T04:05:58.493Z,6.20
2019-02-09T04:08:28.080Z,6.30
2019-02-09T04:10:57.613Z,6.40
2019-02-09T04:13:27.185Z,6.40
2019-02-09T04:15:56.748Z,6.30
2019-02-09T04:18:26.287Z,6.30
2019-02-09T04:20:55.779Z,6.40
2019-02-09T04:23:25.315Z,6.20
2019-02-09T04:25:54.936Z,6.20
2019-02-09T04:28:24.462Z,6.20
2019-02-09T04:30:54.011Z,6.20
2019-02-09T04:33:23.565Z,6.20
2019-02-09T04:35:53.142Z,6.10
2019-02-09T04:38:22.671Z,5.90
2019-02-09T04:40:52.273Z,5.70
2019-02-09T04:43:21.790Z,5.80
2019-02-09T04:45:51.407Z,5.70
2019-02-09T04:48:20.925Z,5.70
2019-02-09T04:50:50.556Z,5.60
2019-02-09T04:53:20.094Z,5.60
2019-02-09T04:55:49.646Z,5.70
2019-02-09T04:58:19.202Z,5.70
2019-02-09T05:00:48.811Z,5.80
2019-02-09T05:03:18.338Z,5.90
2019-02-09T05:05:47.924Z,6.00
2019-02-09T05:08:17.737Z,6.10
2019-02-09T05:10:47.316Z,6.00
2019-02-09T05:13:16.877Z,5.90
2019-02-09T05:15:46.488Z,5.70
2019-02-09T05:18:15.932Z,5.70
2019-02-09T05:20:45.345Z,5.70
2019-02-09T05:23:14.787Z,5.80
2019-02-09T05:25:44.225Z,5.80
2019-02-09T05:28:13.668Z,5.70
2019-02-09T05:30:43.258Z,5.70
2019-02-09T05:33:12.618Z,5.70
2019-02-09T05:35:42.087Z,5.80
2019-02-09T05:38:11.591Z,5.80
2019-02-09T05:40:41.068Z,5.90
2019-02-09T05:43:10.492Z,5.80
2019-02-09T05:45:39.960Z,5.80
2019-02-09T05:48:09.424Z,5.70
2019-02-09T05:50:39.022Z,5.80
2019-02-09T05:53:08.469Z,5.90
2019-02-09T05:55:37.855Z,5.90
2019-02-09T05:58:07.358Z,5.70
2019-02-09T06:00:47.152Z,5.70
2019-02-09T06:03:16.549Z,5.70
2019-02-09T06:05:46.059Z,5.60
2019-02-09T06:08:15.522Z,5.50
2019-02-09T06:10:44.992Z,5.50
2019-02-09T06:13:14.452Z,5.50
2019-02-09T06:15:43.967Z,5.60
2019-02-09T06:18:13.375Z,5.70
2019-02-09T06:20:42.851Z,5.70
2019-02-09T06:23:12.383Z,5.80
2019-02-09T06:25:41.948Z,5.90
2019-02-09T06:28:11.512Z,5.90
2019-02-09T06:30:41.079Z,6.00
2019-02-09T06:33:10.652Z,6.00
2019-02-09T06:35:40.243Z,5.80
2019-02-09T06:38:09.738Z,5.80
2019-02-09T06:40:40.412Z,5.90
2019-02-09T06:43:09.959Z,6.00
2019-02-09T06:45:39.531Z,6.00
2019-02-09T06:48:23.920Z,6.00
2019-02-09T06:50:57.896Z,6.00
2019-02-09T06:53:27.445Z,5.80
2019-02-09T06:55:57.384Z,5.90
2019-02-09T06:58:26.976Z,6.00
2019-02-09T07:00:56.464Z,6.00
2019-02-09T07:03:25.939Z,6.00
2019-02-09T07:05:55.490Z,5.90
2019-02-09T07:08:25.053Z,5.90
2019-02-09T07:10:55.651Z,5.80
2019-02-09T07:13:27.342Z,5.70
2019-02-09T07:15:56.895Z,5.60
2019-02-09T07:18:29.039Z,5.70
2019-02-09T07:20:58.503Z,5.60
2019-02-09T07:23:27.988Z,5.60
2019-02-09T07:25:57.446Z,5.60
2019-02-09T07:28:27.029Z,5.60
2019-02-09T07:30:58.039Z,5.50
2019-02-09T07:33:27.533Z,5.20
2019-02-09T07:35:57.031Z,5.00
2019-02-09T07:38:26.459Z,5.00
2019-02-09T07:40:55.930Z,5.10
2019-02-09T07:43:25.370Z,5.10
2019-02-09T07:45:54.827Z,5.30
2019-02-09T07:48:24.304Z,5.40
2019-02-09T07:50:54.956Z,5.40
2019-02-09T07:53:26.043Z,5.50
2019-02-09T07:55:55.533Z,5.50
2019-02-09T07:58:26.093Z,5.60
2019-02-09T08:00:55.698Z,5.70
2019-02-09T08:03:25.152Z,5.70
2019-02-09T08:05:54.607Z,5.70
2019-02-09T08:08:24.053Z,5.80
2019-02-09T08:10:53.525Z,5.80
2019-02-09T08:13:23.032Z,5.70
2019-02-09T08:15:52.511Z,5.50
2019-02-09T08:18:22.009Z,5.60
2019-02-09T08:20:51.520Z,5.70
2019-02-09T08:23:21.041Z,5.80
2019-02-09T08:25:50.631Z,5.90
2019-02-09T08:28:20.168Z,6.00
2019-02-09T08:30:51.578Z,6.20
2019-02-09T08:33:21.076Z,6.30
2019-02-09T08:35:50.566Z,6.40
2019-02-09T08:38:20.243Z,6.60
2019-02-09T08:40:49.723Z,6.80
2019-02-09T08:43:19.201Z,6.90
2019-02-09T08:45:50.111Z,7.00
2019-02-09T08:48:19.489Z,7.10
2019-02-09T08:50:55.959Z,7.10
2019-02-09T08:53:25.311Z,7.30
2019-02-09T08:55:54.966Z,7.30
2019-02-09T08:58:24.529Z,7.20
2019-02-09T09:01:01.529Z,7.40
2019-02-09T09:03:32.408Z,7.50
2019-02-09T09:06:02.430Z,7.70
2019-02-09T09:08:32.071Z,7.80
2019-02-09T09:11:01.660Z,7.80
2019-02-09T09:13:31.207Z,7.90
2019-02-09T09:16:02.391Z,8.00
2019-02-09T09:18:32.376Z,8.10
2019-02-09T09:21:03.315Z,8.20
2019-02-09T09:23:32.772Z,8.30
2019-02-09T09:26:02.864Z,8.30
2019-02-09T09:28:32.418Z,8.50
2019-02-09T09:31:01.932Z,8.50
2019-02-09T09:33:33.172Z,8.50
2019-02-09T09:36:02.710Z,8.60
2019-02-09T09:38:32.146Z,8.60
2019-02-09T09:41:01.677Z,8.80
2019-02-09T09:43:31.097Z,8.80
2019-02-09T09:46:00.580Z,8.80
2019-02-09T09:48:30.017Z,8.70
2019-02-09T09:50:59.505Z,8.70
2019-02-09T09:53:29.289Z,8.80
2019-02-09T09:56:00.585Z,8.80
2019-02-09T09:58:30.618Z,8.70
2019-02-09T10:01:00.232Z,8.80
2019-02-09T10:03:29.789Z,8.90
2019-02-09T10:06:01.547Z,9.00
2019-02-09T10:08:36.910Z,9.00
2019-02-09T10:11:06.595Z,9.10
2019-02-09T10:13:38.482Z,9.10
2019-02-09T10:16:09.632Z,9.10
2019-02-09T10:18:41.385Z,9.00
2019-02-09T10:21:12.528Z,9.00
2019-02-09T10:23:44.093Z,9.10
2019-02-09T10:26:14.361Z,9.10
2019-02-09T10:28:46.135Z,9.10
2019-02-09T10:31:15.644Z,8.90
2019-02-09T10:33:45.442Z,9.00
2019-02-09T10:36:14.925Z,9.10
2019-02-09T10:38:44.398Z,9.30
2019-02-09T10:41:13.946Z,9.40
2019-02-09T10:43:44.331Z,9.40
2019-02-09T10:46:14.145Z,9.50
2019-02-09T10:48:45.033Z,9.60
2019-02-09T10:51:16.853Z,9.80
2019-02-09T10:53:46.812Z,9.90
2019-02-09T10:56:16.323Z,9.80
2019-02-09T10:58:45.799Z,9.90
2019-02-09T11:01:19.165Z,10.00
2019-02-09T11:03:48.793Z,10.10
2019-02-09T11:06:18.597Z,10.20
2019-02-09T11:08:48.654Z,10.20
2019-02-09T11:11:19.091Z,10.20
2019-02-09T11:13:49.471Z,10.30
2019-02-09T11:16:19.078Z,10.30
2019-02-09T11:18:48.695Z,10.40
2019-02-09T11:21:20.784Z,10.50
2019-02-09T11:23:50.793Z,10.60
2019-02-09T11:26:20.280Z,10.60
2019-02-09T11:28:49.734Z,10.70
2019-02-09T11:31:19.285Z,10.60
2019-02-09T11:33:48.827Z,10.70
2019-02-09T11:36:18.363Z,10.80
2019-02-09T11:38:47.797Z,10.90
2019-02-09T11:41:17.345Z,11.00
2019-02-09T11:43:47.916Z,11.00
2019-02-09T11:46:18.511Z,11.00
2019-02-09T11:48:48.271Z,11.00
2019-02-09T11:51:19.301Z,11.10
2019-02-09T11:53:48.797Z,11.10
2019-02-09T11:56:18.320Z,11.10
2019-02-09T11:58:48.239Z,11.00
2019-02-09T12:01:17.799Z,10.90
2019-02-09T12:03:47.228Z,10.80
2019-02-09T12:06:18.093Z,10.90
2019-02-09T12:08:49.112Z,11.00
2019-02-09T12:11:18.561Z,11.00
2019-02-09T12:13:55.205Z,11.10
2019-02-09T12:16:24.384Z,11.10
2019-02-09T12:18:55.915Z,11.10
2019-02-09T12:21:28.170Z,11.10
2019-02-09T12:23:58.679Z,11.10
2019-02-09T12:26:29.856Z,11.10
2019-02-09T12:28:59.421Z,11.00
2019-02-09T12:31:28.966Z,11.10
2019-02-09T12:33:59.703Z,11.20
2019-02-09T12:36:29.305Z,11.30
2019-02-09T12:38:59.787Z,11.20
2019-02-09T12:41:30.088Z,11.20
2019-02-09T12:43:59.636Z,11.20
2019-02-09T12:46:31.957Z,11.30
2019-02-09T12:49:01.503Z,11.20
2019-02-09T12:51:31.144Z,11.30
2019-02-09T12:54:03.511Z,11.40
2019-02-09T12:56:33.079Z,11.50
2019-02-09T12:59:04.506Z,11.50
2019-02-09T13:01:36.636Z,11.50
2019-02-09T13:04:06.788Z,11.60
2019-02-09T13:06:40.222Z,11.50
2019-02-09T13:09:11.228Z,11.50
2019-02-09T13:11:43.203Z,11.50
2019-02-09T13:14:12.779Z,11.50
2019-02-09T13:16:42.470Z,11.50
2019-02-09T13:19:13.300Z,11.50
2019-02-09T13:21:43.102Z,11.60
2019-02-09T13:24:12.663Z,11.50
2019-02-09T13:26:42.254Z,11.50
2019-02-09T13:29:12.208Z,11.50
2019-02-09T13:31:41.789Z,11.60
2019-02-09T13:34:11.362Z,11.50
2019-02-09T13:36:43.086Z,11.70
2019-02-09T13:39:13.220Z,11.70
2019-02-09T13:41:45.619Z,11.70
2019-02-09T13:44:15.450Z,11.60
2019-02-09T13:46:48.059Z,11.60
2019-02-09T13:49:17.672Z,11.60
2019-02-09T13:51:47.521Z,11.70
2019-02-09T13:54:20.197Z,11.70
2019-02-09T13:56:49.721Z,11.70
2019-02-09T13:59:21.787Z,11.70
2019-02-09T14:01:51.589Z,11.80
2019-02-09T14:04:21.285Z,11.80
2019-02-09T14:06:54.967Z,11.80
2019-02-09T14:09:24.710Z,11.80
2019-02-09T14:11:57.166Z,11.70
2019-02-09T14:14:26.905Z,11.70
2019-02-09T14:16:56.594Z,11.70
2019-02-09T14:19:32.343Z,11.70
2019-02-09T14:22:02.068Z,11.70
2019-02-09T14:24:31.619Z,11.80
2019-02-09T14:27:02.860Z,11.80
2019-02-09T14:29:33.240Z,11.70
2019-02-09T14:32:02.773Z,11.70
2019-02-09T14:34:36.037Z,11.70
2019-02-09T14:37:10.372Z,11.60
2019-02-09T14:39:39.983Z,11.50
2019-02-09T14:42:11.875Z,11.30
2019-02-09T14:44:43.944Z,11.30
2019-02-09T14:47:16.469Z,11.30
2019-02-09T14:49:48.647Z,11.30
2019-02-09T14:52:19.136Z,11.20
2019-02-09T14:54:48.797Z,11.20
2019-02-09T14:57:18.318Z,11.10
2019-02-09T14:59:51.217Z,11.10
2019-02-09T15:02:20.854Z,11.00
2019-02-09T15:04:50.523Z,11.00
2019-02-09T15:07:20.111Z,10.80
2019-02-09T15:09:54.786Z,10.90
2019-02-09T15:12:30.424Z,10.90
2019-02-09T15:15:00.015Z,10.90
2019-02-09T15:17:29.515Z,10.70
2019-02-09T15:19:58.959Z,10.70
2019-02-09T15:22:30.237Z,10.70
2019-02-09T15:24:59.739Z,10.70
2019-02-09T15:27:29.340Z,10.70
2019-02-09T15:30:00.264Z,10.60
2019-02-09T15:32:31.025Z,10.50
2019-02-09T15:35:00.484Z,10.50
2019-02-09T15:37:29.896Z,10.40
2019-02-09T15:40:00.658Z,10.40
2019-02-09T15:42:31.233Z,10.30
2019-02-09T15:45:00.726Z,10.20
2019-02-09T15:47:32.790Z,10.20
2019-02-09T15:50:04.831Z,10.10
2019-02-09T15:52:34.335Z,10.10
2019-02-09T15:55:04.243Z,10.00
2019-02-09T15:57:35.050Z,10.10
2019-02-09T16:00:09.104Z,10.00
2019-02-09T16:02:40.832Z,10.00
2019-02-09T16:05:11.930Z,10.00
2019-02-09T16:07:41.496Z,9.90
2019-02-09T16:10:11.435Z,9.90
2019-02-09T16:12:42.771Z,9.80
2019-02-09T16:15:15.354Z,9.70
2019-02-09T16:17:44.801Z,9.60
2019-02-09T16:20:18.524Z,9.70
2019-02-09T16:22:50.995Z,9.70
2019-02-09T16:25:22.768Z,9.70
2019-02-09T16:27:54.740Z,9.70
2019-02-09T16:30:26.533Z,9.60
2019-02-09T16:32:58.578Z,9.60
2019-02-09T16:35:28.839Z,9.80
2019-02-09T16:37:59.123Z,9.60
2019-02-09T16:40:30.126Z,9.60
2019-02-09T16:43:00.396Z,9.50
2019-02-09T16:45:32.348Z,9.50
2019-02-09T16:48:04.921Z,9.50
2019-02-09T16:50:35.081Z,9.60
2019-02-09T16:53:05.788Z,9.40
2019-02-09T16:55:36.129Z,9.30
2019-02-09T16:58:06.770Z,9.20
2019-02-09T17:00:39.516Z,9.30
2019-02-09T17:03:11.121Z,9.40
2019-02-09T17:05:44.124Z,9.40
2019-02-09T17:08:15.220Z,9.30
2019-02-09T17:10:45.485Z,9.30
2019-02-09T17:13:17.308Z,9.20
2019-02-09T17:15:47.823Z,9.30
2019-02-09T17:18:17.942Z,9.20
2019-02-09T17:20:49.064Z,9.20
2019-02-09T17:23:19.393Z,9.20
2019-02-09T17:25:49.905Z,9.30
2019-02-09T17:28:21.341Z,9.20
2019-02-09T17:30:51.781Z,9.20
2019-02-09T17:33:22.107Z,9.20
2019-02-09T17:35:52.561Z,9.20
2019-02-09T17:38:23.616Z,9.20
2019-02-09T17:40:55.408Z,9.10
2019-02-09T17:43:28.507Z,9.10
2019-02-09T17:46:06.347Z,9.10
2019-02-09T17:48:37.073Z,9.20
2019-02-09T17:51:17.527Z,9.00
2019-02-09T17:53:47.929Z,9.00
2019-02-09T17:56:21.086Z,9.10
2019-02-09T17:58:54.636Z,9.10
2019-02-09T18:01:27.222Z,9.00
2019-02-09T18:03:57.606Z,9.00
2019-02-09T18:06:27.870Z,9.00
2019-02-09T18:08:58.244Z,9.00
2019-02-09T18:11:29.375Z,8.90
2019-02-09T18:13:59.632Z,9.00
2019-02-09T18:16:29.964Z,9.10
2019-02-09T18:19:00.377Z,9.00
2019-02-09T18:21:30.864Z,8.90
2019-02-09T18:24:01.221Z,9.00
2019-02-09T18:26:33.805Z,8.90
2019-02-09T18:29:05.626Z,8.90
2019-02-09T18:31:35.945Z,8.90
2019-02-09T18:34:06.381Z,8.90
2019-02-09T18:36:37.797Z,8.90
2019-02-09T18:39:12.339Z,8.90
2019-02-09T18:41:43.947Z,8.90
2019-02-09T18:44:14.416Z,8.90
2019-02-09T18:46:44.709Z,8.80
2019-02-09T18:49:15.238Z,8.90
2019-02-09T18:51:49.272Z,8.90
2019-02-09T18:54:19.455Z,8.80
2019-02-09T18:56:49.749Z,8.80
2019-02-09T18:59:20.111Z,8.80
2019-02-09T19:01:52.873Z,8.90
2019-02-09T19:04:24.584Z,8.90
2019-02-09T19:06:54.884Z,8.90
2019-02-09T19:09:28.177Z,8.80
2019-02-09T19:11:58.511Z,8.80
2019-02-09T19:14:29.031Z,8.80
2019-02-09T19:16:59.298Z,8.70
2019-02-09T19:19:29.512Z,8.80
2019-02-09T19:22:00.007Z,8.70
2019-02-09T19:24:32.913Z,8.80
2019-02-09T19:27:03.275Z,8.70
2019-02-09T19:29:34.011Z,8.70
2019-02-09T19:32:05.663Z,8.60
2019-02-09T19:34:38.436Z,8.60
2019-02-09T19:37:10.888Z,8.80
2019-02-09T19:39:42.813Z,8.80
2019-02-09T19:42:16.596Z,8.60
2019-02-09T19:44:48.799Z,8.60
2019-02-09T19:47:19.847Z,8.40
2019-02-09T19:49:50.723Z,8.20
2019-02-09T19:52:23.785Z,8.20
2019-02-09T19:54:54.416Z,8.00
2019-02-09T19:57:25.396Z,7.90
2019-02-09T19:59:57.240Z,8.00
2019-02-09T20:02:28.879Z,8.00
2019-02-09T20:04:59.645Z,8.00
2019-02-09T20:07:30.383Z,8.00
2019-02-09T20:10:01.717Z,8.00
2019-02-09T20:12:32.537Z,8.00
2019-02-09T20:15:03.467Z,7.90
2019-02-09T20:17:37.071Z,7.90
2019-02-09T20:20:08.649Z,7.90
2019-02-09T20:22:45.852Z,8.00
2019-02-09T20:25:51.933Z,7.90
2019-02-09T20:28:22.327Z,8.00
2019-02-09T20:30:54.340Z,8.00
2019-02-09T20:33:24.710Z,7.90
2019-02-09T20:35:57.895Z,8.00
2019-02-09T20:38:39.621Z,7.90
2019-02-09T20:41:11.599Z,8.00
2019-02-09T20:43:45.940Z,8.00
2019-02-09T20:46:33.376Z,7.90
2019-02-09T20:49:15.662Z,7.80
2019-02-09T20:51:49.710Z,7.90
2019-02-09T20:54:24.073Z,7.90
2019-02-09T20:56:56.611Z,7.80
2019-02-09T20:59:30.821Z,7.80
2019-02-09T21:02:01.103Z,7.80
2019-02-09T21:04:40.174Z,7.80
2019-02-09T21:07:11.553Z,7.90
2019-02-09T21:09:41.944Z,8.10
2019-02-09T21:12:15.187Z,8.10
2019-02-09T21:14:47.725Z,8.10
2019-02-09T21:17:19.235Z,8.20
2019-02-09T21:20:00.565Z,8.10
2019-02-09T21:22:30.811Z,8.20
2019-02-09T21:25:08.330Z,8.10
2019-02-09T21:27:38.604Z,8.10
2019-02-09T21:30:09.644Z,8.10
2019-02-09T21:32:42.533Z,8.00
2019-02-09T21:35:13.480Z,7.90
2019-02-09T21:37:44.054Z,8.00
2019-02-09T21:40:17.261Z,8.10
2019-02-09T21:42:50.738Z,8.10
2019-02-09T21:45:21.804Z,8.20
2019-02-09T21:47:52.704Z,8.20
2019-02-09T21:50:28.506Z,8.20
2019-02-09T21:52:58.860Z,8.20
2019-02-09T21:55:29.207Z,8.10
2019-02-09T21:57:59.578Z,8.20
2019-02-09T22:00:32.072Z,8.30
2019-02-09T22:03:02.320Z,8.30
2019-02-09T22:05:34.543Z,8.40
2019-02-09T22:08:05.042Z,8.40
2019-02-09T22:10:37.454Z,8.50
2019-02-09T22:13:11.479Z,8.50
2019-02-09T22:15:41.522Z,8.50
2019-02-09T22:18:11.926Z,8.50
2019-02-09T22:20:42.012Z,8.50
2019-02-09T22:23:12.196Z,8.40
2019-02-09T22:25:42.959Z,8.30
2019-02-09T22:28:12.757Z,8.20
2019-02-09T22:30:42.560Z,8.20
2019-02-09T22:33:13.758Z,8.40
2019-02-09T22:35:43.400Z,8.40
2019-02-09T22:38:12.881Z,8.20
2019-02-09T22:40:42.713Z,8.30
2019-02-09T22:43:12.842Z,8.20
2019-02-09T22:45:42.379Z,8.20
2019-02-09T22:48:12.092Z,8.20
2019-02-09T22:50:44.646Z,8.30
2019-02-09T22:53:14.272Z,8.20
2019-02-09T22:55:43.764Z,7.80
2019-02-09T22:58:13.659Z,7.50
2019-02-09T23:01:20.065Z,7.40
2019-02-09T23:04:04.490Z,7.30
2019-02-09T23:06:55.731Z,7.20
2019-02-09T23:09:29.442Z,7.00
2019-02-09T23:11:58.965Z,6.90
2019-02-09T23:14:28.582Z,6.90
2019-02-09T23:16:58.610Z,6.90
2019-02-09T23:19:30.986Z,7.00
2019-02-09T23:22:01.854Z,7.10
2019-02-09T23:24:31.337Z,7.10
2019-02-09T23:27:02.389Z,7.00
2019-02-09T23:29:32.344Z,7.00
2019-02-09T23:32:01.928Z,7.10
2019-02-09T23:34:33.609Z,7.20
2019-02-09T23:37:03.150Z,7.20
2019-02-09T23:39:37.443Z,7.20
2019-02-09T23:42:08.753Z,7.20
2019-02-09T23:44:41.309Z,7.10
2019-02-09T23:47:11.059Z,7.10
2019-02-09T23:49:42.173Z,7.30
2019-02-09T23:52:11.888Z,7.40
2019-02-09T23:54:54.144Z,7.50
2019-02-09T23:57:23.678Z,7.40
2019-02-09T23:59:53.195Z,7.40
